sensor_id;sensor_type;location;lat;lon;timestamp;P1;durP1;ratioP1;P2;durP2;ratioP2
15043;SDS011;7619;48.562;8.910;2023-06-24T00:01:17;3.63;;;2.83;;
15043;SDS011;7619;48.562;8.910;2023-06-24T00:03:46;4.57;;;3.20;;
15043;SDS011;7619;48.562;8.910;2023-06-24T00:06:15;3.23;;;2.90;;
15043;SDS011;7619;48.562;8.910;2023-06-24T00:08:45;3.97;;;3.33;;
15043;SDS011;7619;48.562;8.910;2023-06-24T00:11:13;3.20;;;2.77;;
15043;SDS011;7619;48.562;8.910;2023-06-24T00:13:41;3.97;;;3.37;;
15043;SDS011;7619;48.562;8.910;2023-06-24T00:16:11;4.23;;;3.13;;
15043;SDS011;7619;48.562;8.910;2023-06-24T00:18:39;5.60;;;3.80;;
15043;SDS011;7619;48.562;8.910;2023-06-24T00:21:08;3.40;;;3.10;;
15043;SDS011;7619;48.562;8.910;2023-06-24T00:23:36;4.17;;;3.27;;
15043;SDS011;7619;48.562;8.910;2023-06-24T00:26:04;4.23;;;3.80;;
15043;SDS011;7619;48.562;8.910;2023-06-24T00:28:32;3.63;;;2.93;;
15043;SDS011;7619;48.562;8.910;2023-06-24T00:31:00;2.93;;;2.73;;
15043;SDS011;7619;48.562;8.910;2023-06-24T00:33:29;3.53;;;2.97;;
15043;SDS011;7619;48.562;8.910;2023-06-24T00:35:59;3.40;;;3.10;;
15043;SDS011;7619;48.562;8.910;2023-06-24T00:38:28;3.60;;;2.80;;
15043;SDS011;7619;48.562;8.910;2023-06-24T00:40:58;4.20;;;2.90;;
15043;SDS011;7619;48.562;8.910;2023-06-24T00:43:26;4.23;;;3.27;;
15043;SDS011;7619;48.562;8.910;2023-06-24T00:45:54;5.13;;;3.60;;
15043;SDS011;7619;48.562;8.910;2023-06-24T00:48:23;3.90;;;3.07;;
15043;SDS011;7619;48.562;8.910;2023-06-24T00:50:51;3.57;;;3.27;;
15043;SDS011;7619;48.562;8.910;2023-06-24T00:53:19;5.23;;;3.57;;
15043;SDS011;7619;48.562;8.910;2023-06-24T00:55:49;6.67;;;2.80;;
15043;SDS011;7619;48.562;8.910;2023-06-24T00:58:19;4.03;;;3.23;;
15043;SDS011;7619;48.562;8.910;2023-06-24T01:00:47;3.47;;;3.17;;
15043;SDS011;7619;48.562;8.910;2023-06-24T01:03:19;4.13;;;3.50;;
15043;SDS011;7619;48.562;8.910;2023-06-24T01:05:47;2.93;;;2.63;;
15043;SDS011;7619;48.562;8.910;2023-06-24T01:08:16;3.93;;;3.57;;
15043;SDS011;7619;48.562;8.910;2023-06-24T01:10:46;3.83;;;3.30;;
15043;SDS011;7619;48.562;8.910;2023-06-24T01:13:14;3.53;;;3.23;;
15043;SDS011;7619;48.562;8.910;2023-06-24T01:15:43;4.37;;;3.50;;
15043;SDS011;7619;48.562;8.910;2023-06-24T01:18:13;3.43;;;3.13;;
15043;SDS011;7619;48.562;8.910;2023-06-24T01:20:43;5.07;;;3.70;;
15043;SDS011;7619;48.562;8.910;2023-06-24T01:26:19;4.50;;;3.07;;
15043;SDS011;7619;48.562;8.910;2023-06-24T01:31:42;3.40;;;2.80;;
15043;SDS011;7619;48.562;8.910;2023-06-24T01:34:15;5.40;;;3.57;;
15043;SDS011;7619;48.562;8.910;2023-06-24T01:36:43;3.00;;;2.70;;
15043;SDS011;7619;48.562;8.910;2023-06-24T01:39:13;4.80;;;3.10;;
15043;SDS011;7619;48.562;8.910;2023-06-24T01:41:45;3.93;;;3.53;;
15043;SDS011;7619;48.562;8.910;2023-06-24T01:44:13;4.20;;;3.27;;
15043;SDS011;7619;48.562;8.910;2023-06-24T01:46:42;3.33;;;2.73;;
15043;SDS011;7619;48.562;8.910;2023-06-24T01:49:12;3.70;;;3.20;;
15043;SDS011;7619;48.562;8.910;2023-06-24T01:51:41;3.57;;;3.20;;
15043;SDS011;7619;48.562;8.910;2023-06-24T01:54:11;4.33;;;3.50;;
15043;SDS011;7619;48.562;8.910;2023-06-24T01:56:40;5.73;;;3.97;;
15043;SDS011;7619;48.562;8.910;2023-06-24T01:59:09;3.47;;;3.03;;
15043;SDS011;7619;48.562;8.910;2023-06-24T02:01:38;4.37;;;3.50;;
15043;SDS011;7619;48.562;8.910;2023-06-24T02:04:07;5.07;;;3.40;;
15043;SDS011;7619;48.562;8.910;2023-06-24T02:06:36;3.53;;;3.20;;
15043;SDS011;7619;48.562;8.910;2023-06-24T02:09:06;3.80;;;3.37;;
15043;SDS011;7619;48.562;8.910;2023-06-24T02:11:34;4.70;;;3.67;;
15043;SDS011;7619;48.562;8.910;2023-06-24T02:14:04;4.77;;;3.17;;
15043;SDS011;7619;48.562;8.910;2023-06-24T02:16:33;3.10;;;2.80;;
15043;SDS011;7619;48.562;8.910;2023-06-24T02:19:01;5.80;;;3.43;;
15043;SDS011;7619;48.562;8.910;2023-06-24T02:21:30;2.90;;;2.63;;
15043;SDS011;7619;48.562;8.910;2023-06-24T02:24:02;3.20;;;2.67;;
15043;SDS011;7619;48.562;8.910;2023-06-24T02:26:31;3.17;;;2.87;;
15043;SDS011;7619;48.562;8.910;2023-06-24T02:28:59;3.43;;;3.00;;
15043;SDS011;7619;48.562;8.910;2023-06-24T02:31:27;4.10;;;2.83;;
15043;SDS011;7619;48.562;8.910;2023-06-24T02:33:56;3.80;;;3.40;;
15043;SDS011;7619;48.562;8.910;2023-06-24T02:36:24;7.37;;;3.60;;
15043;SDS011;7619;48.562;8.910;2023-06-24T02:38:52;3.67;;;3.20;;
15043;SDS011;7619;48.562;8.910;2023-06-24T02:41:20;4.00;;;3.10;;
15043;SDS011;7619;48.562;8.910;2023-06-24T02:43:48;3.93;;;3.30;;
15043;SDS011;7619;48.562;8.910;2023-06-24T02:46:17;6.47;;;3.30;;
15043;SDS011;7619;48.562;8.910;2023-06-24T02:48:45;3.87;;;3.20;;
15043;SDS011;7619;48.562;8.910;2023-06-24T02:51:14;4.53;;;3.93;;
15043;SDS011;7619;48.562;8.910;2023-06-24T02:53:43;4.67;;;3.70;;
15043;SDS011;7619;48.562;8.910;2023-06-24T02:56:13;5.17;;;3.90;;
15043;SDS011;7619;48.562;8.910;2023-06-24T02:58:41;6.00;;;3.77;;
15043;SDS011;7619;48.562;8.910;2023-06-24T03:01:10;5.20;;;3.63;;
15043;SDS011;7619;48.562;8.910;2023-06-24T03:03:38;5.97;;;3.27;;
15043;SDS011;7619;48.562;8.910;2023-06-24T03:06:08;4.80;;;3.30;;
15043;SDS011;7619;48.562;8.910;2023-06-24T03:08:38;6.80;;;3.40;;
15043;SDS011;7619;48.562;8.910;2023-06-24T03:11:06;6.77;;;3.33;;
15043;SDS011;7619;48.562;8.910;2023-06-24T03:13:34;4.53;;;3.60;;
15043;SDS011;7619;48.562;8.910;2023-06-24T03:16:02;6.23;;;3.30;;
15043;SDS011;7619;48.562;8.910;2023-06-24T03:18:30;3.63;;;2.90;;
15043;SDS011;7619;48.562;8.910;2023-06-24T03:20:59;3.77;;;3.07;;
15043;SDS011;7619;48.562;8.910;2023-06-24T03:23:27;6.97;;;4.33;;
15043;SDS011;7619;48.562;8.910;2023-06-24T03:25:55;5.43;;;3.27;;
15043;SDS011;7619;48.562;8.910;2023-06-24T03:28:23;7.50;;;3.30;;
15043;SDS011;7619;48.562;8.910;2023-06-24T03:30:51;3.73;;;3.23;;
15043;SDS011;7619;48.562;8.910;2023-06-24T03:33:19;3.70;;;3.23;;
15043;SDS011;7619;48.562;8.910;2023-06-24T03:35:47;3.13;;;2.83;;
15043;SDS011;7619;48.562;8.910;2023-06-24T03:38:15;10.53;;;3.67;;
15043;SDS011;7619;48.562;8.910;2023-06-24T03:40:43;7.57;;;3.47;;
15043;SDS011;7619;48.562;8.910;2023-06-24T03:43:11;7.57;;;3.70;;
15043;SDS011;7619;48.562;8.910;2023-06-24T03:45:40;4.50;;;3.37;;
15043;SDS011;7619;48.562;8.910;2023-06-24T03:48:08;3.70;;;2.80;;
15043;SDS011;7619;48.562;8.910;2023-06-24T03:50:36;5.13;;;3.10;;
15043;SDS011;7619;48.562;8.910;2023-06-24T03:53:05;4.63;;;3.63;;
15043;SDS011;7619;48.562;8.910;2023-06-24T03:55:33;6.47;;;3.80;;
15043;SDS011;7619;48.562;8.910;2023-06-24T03:58:01;3.63;;;3.27;;
15043;SDS011;7619;48.562;8.910;2023-06-24T04:00:30;5.60;;;3.23;;
15043;SDS011;7619;48.562;8.910;2023-06-24T04:02:58;3.50;;;2.87;;
15043;SDS011;7619;48.562;8.910;2023-06-24T04:05:27;3.50;;;3.20;;
15043;SDS011;7619;48.562;8.910;2023-06-24T04:07:56;4.70;;;3.43;;
15043;SDS011;7619;48.562;8.910;2023-06-24T04:10:24;5.70;;;3.50;;
15043;SDS011;7619;48.562;8.910;2023-06-24T04:12:52;7.63;;;3.80;;
15043;SDS011;7619;48.562;8.910;2023-06-24T04:15:20;3.97;;;3.20;;
15043;SDS011;7619;48.562;8.910;2023-06-24T04:17:49;4.57;;;3.67;;
15043;SDS011;7619;48.562;8.910;2023-06-24T04:20:17;4.57;;;3.67;;
15043;SDS011;7619;48.562;8.910;2023-06-24T04:22:45;3.53;;;3.17;;
15043;SDS011;7619;48.562;8.910;2023-06-24T04:27:51;3.37;;;3.07;;
15043;SDS011;7619;48.562;8.910;2023-06-24T04:30:19;4.37;;;3.00;;
15043;SDS011;7619;48.562;8.910;2023-06-24T04:32:47;2.90;;;2.60;;
15043;SDS011;7619;48.562;8.910;2023-06-24T04:35:15;4.13;;;3.40;;
15043;SDS011;7619;48.562;8.910;2023-06-24T04:37:43;3.20;;;2.90;;
15043;SDS011;7619;48.562;8.910;2023-06-24T04:40:11;3.03;;;2.63;;
15043;SDS011;7619;48.562;8.910;2023-06-24T04:42:40;2.80;;;2.50;;
15043;SDS011;7619;48.562;8.910;2023-06-24T04:45:09;4.30;;;2.90;;
15043;SDS011;7619;48.562;8.910;2023-06-24T04:47:37;6.20;;;2.90;;
15043;SDS011;7619;48.562;8.910;2023-06-24T04:50:06;5.17;;;2.97;;
15043;SDS011;7619;48.562;8.910;2023-06-24T04:52:36;2.70;;;2.50;;
15043;SDS011;7619;48.562;8.910;2023-06-24T04:55:05;5.97;;;2.70;;
15043;SDS011;7619;48.562;8.910;2023-06-24T04:57:33;3.47;;;3.10;;
15043;SDS011;7619;48.562;8.910;2023-06-24T05:00:01;2.37;;;2.13;;
15043;SDS011;7619;48.562;8.910;2023-06-24T05:02:31;5.63;;;2.67;;
15043;SDS011;7619;48.562;8.910;2023-06-24T05:04:59;5.70;;;2.80;;
15043;SDS011;7619;48.562;8.910;2023-06-24T05:07:27;3.47;;;3.17;;
15043;SDS011;7619;48.562;8.910;2023-06-24T05:09:55;3.63;;;2.70;;
15043;SDS011;7619;48.562;8.910;2023-06-24T05:12:23;2.93;;;2.60;;
15043;SDS011;7619;48.562;8.910;2023-06-24T05:14:51;3.00;;;2.63;;
15043;SDS011;7619;48.562;8.910;2023-06-24T05:17:20;3.00;;;2.70;;
15043;SDS011;7619;48.562;8.910;2023-06-24T05:19:48;3.33;;;3.03;;
15043;SDS011;7619;48.562;8.910;2023-06-24T05:22:16;3.97;;;2.90;;
15043;SDS011;7619;48.562;8.910;2023-06-24T05:24:44;3.57;;;2.47;;
15043;SDS011;7619;48.562;8.910;2023-06-24T05:27:12;3.87;;;2.53;;
15043;SDS011;7619;48.562;8.910;2023-06-24T05:29:40;3.43;;;3.03;;
15043;SDS011;7619;48.562;8.910;2023-06-24T05:32:08;3.50;;;2.83;;
15043;SDS011;7619;48.562;8.910;2023-06-24T05:34:36;4.83;;;3.13;;
15043;SDS011;7619;48.562;8.910;2023-06-24T05:37:04;3.93;;;2.53;;
15043;SDS011;7619;48.562;8.910;2023-06-24T05:39:33;3.03;;;2.63;;
15043;SDS011;7619;48.562;8.910;2023-06-24T05:42:01;2.97;;;2.67;;
15043;SDS011;7619;48.562;8.910;2023-06-24T05:44:29;2.43;;;2.23;;
15043;SDS011;7619;48.562;8.910;2023-06-24T05:46:58;2.87;;;2.67;;
15043;SDS011;7619;48.562;8.910;2023-06-24T05:49:26;3.73;;;3.00;;
15043;SDS011;7619;48.562;8.910;2023-06-24T05:54:30;3.50;;;2.83;;
15043;SDS011;7619;48.562;8.910;2023-06-24T05:56:58;3.20;;;2.70;;
15043;SDS011;7619;48.562;8.910;2023-06-24T05:59:26;3.33;;;2.20;;
15043;SDS011;7619;48.562;8.910;2023-06-24T06:01:54;4.20;;;2.87;;
15043;SDS011;7619;48.562;8.910;2023-06-24T06:04:22;3.37;;;3.07;;
15043;SDS011;7619;48.562;8.910;2023-06-24T06:06:50;3.30;;;3.00;;
15043;SDS011;7619;48.562;8.910;2023-06-24T06:09:18;3.10;;;2.80;;
15043;SDS011;7619;48.562;8.910;2023-06-24T06:11:46;3.43;;;3.13;;
15043;SDS011;7619;48.562;8.910;2023-06-24T06:14:14;3.10;;;2.80;;
15043;SDS011;7619;48.562;8.910;2023-06-24T06:16:42;3.50;;;2.87;;
15043;SDS011;7619;48.562;8.910;2023-06-24T06:19:11;3.50;;;2.93;;
15043;SDS011;7619;48.562;8.910;2023-06-24T06:21:39;3.13;;;2.83;;
15043;SDS011;7619;48.562;8.910;2023-06-24T06:24:07;3.17;;;2.93;;
15043;SDS011;7619;48.562;8.910;2023-06-24T06:26:37;3.47;;;2.73;;
15043;SDS011;7619;48.562;8.910;2023-06-24T06:31:41;5.50;;;3.03;;
15043;SDS011;7619;48.562;8.910;2023-06-24T06:34:09;4.03;;;3.00;;
15043;SDS011;7619;48.562;8.910;2023-06-24T06:36:37;2.77;;;2.50;;
15043;SDS011;7619;48.562;8.910;2023-06-24T06:39:05;2.80;;;2.60;;
15043;SDS011;7619;48.562;8.910;2023-06-24T06:41:34;3.20;;;2.90;;
15043;SDS011;7619;48.562;8.910;2023-06-24T06:44:02;2.50;;;2.30;;
15043;SDS011;7619;48.562;8.910;2023-06-24T06:46:30;5.00;;;2.87;;
15043;SDS011;7619;48.562;8.910;2023-06-24T06:48:58;3.70;;;2.50;;
15043;SDS011;7619;48.562;8.910;2023-06-24T06:51:26;2.70;;;2.50;;
15043;SDS011;7619;48.562;8.910;2023-06-24T06:53:55;2.80;;;2.47;;
15043;SDS011;7619;48.562;8.910;2023-06-24T06:56:23;2.60;;;2.30;;
15043;SDS011;7619;48.562;8.910;2023-06-24T06:58:51;2.93;;;2.63;;
15043;SDS011;7619;48.562;8.910;2023-06-24T07:01:19;2.47;;;2.20;;
15043;SDS011;7619;48.562;8.910;2023-06-24T07:03:49;2.60;;;2.40;;
15043;SDS011;7619;48.562;8.910;2023-06-24T07:06:18;3.13;;;2.63;;
15043;SDS011;7619;48.562;8.910;2023-06-24T07:08:46;2.33;;;2.13;;
15043;SDS011;7619;48.562;8.910;2023-06-24T07:11:14;2.50;;;2.30;;
15043;SDS011;7619;48.562;8.910;2023-06-24T07:13:43;4.60;;;2.20;;
15043;SDS011;7619;48.562;8.910;2023-06-24T07:16:12;3.00;;;2.40;;
15043;SDS011;7619;48.562;8.910;2023-06-24T07:18:41;2.83;;;2.43;;
15043;SDS011;7619;48.562;8.910;2023-06-24T07:21:09;2.97;;;2.67;;
15043;SDS011;7619;48.562;8.910;2023-06-24T07:23:37;2.93;;;2.37;;
15043;SDS011;7619;48.562;8.910;2023-06-24T07:26:05;2.33;;;2.00;;
15043;SDS011;7619;48.562;8.910;2023-06-24T07:28:33;2.90;;;2.60;;
15043;SDS011;7619;48.562;8.910;2023-06-24T07:31:01;2.73;;;2.30;;
15043;SDS011;7619;48.562;8.910;2023-06-24T07:33:29;3.43;;;2.83;;
15043;SDS011;7619;48.562;8.910;2023-06-24T07:35:57;2.73;;;2.33;;
15043;SDS011;7619;48.562;8.910;2023-06-24T07:38:27;2.60;;;2.40;;
15043;SDS011;7619;48.562;8.910;2023-06-24T07:40:55;2.63;;;2.43;;
15043;SDS011;7619;48.562;8.910;2023-06-24T07:43:23;2.63;;;2.33;;
15043;SDS011;7619;48.562;8.910;2023-06-24T07:45:51;2.40;;;2.17;;
15043;SDS011;7619;48.562;8.910;2023-06-24T07:48:19;3.80;;;2.93;;
15043;SDS011;7619;48.562;8.910;2023-06-24T07:50:48;2.30;;;2.10;;
15043;SDS011;7619;48.562;8.910;2023-06-24T07:53:16;2.57;;;2.30;;
15043;SDS011;7619;48.562;8.910;2023-06-24T07:55:44;2.30;;;2.10;;
15043;SDS011;7619;48.562;8.910;2023-06-24T07:58:12;2.30;;;2.00;;
15043;SDS011;7619;48.562;8.910;2023-06-24T08:00:40;2.50;;;2.00;;
15043;SDS011;7619;48.562;8.910;2023-06-24T08:03:09;2.43;;;2.13;;
15043;SDS011;7619;48.562;8.910;2023-06-24T08:05:37;2.33;;;2.10;;
15043;SDS011;7619;48.562;8.910;2023-06-24T08:08:08;2.30;;;2.00;;
15043;SDS011;7619;48.562;8.910;2023-06-24T08:10:35;2.87;;;1.93;;
15043;SDS011;7619;48.562;8.910;2023-06-24T08:13:03;4.20;;;1.90;;
15043;SDS011;7619;48.562;8.910;2023-06-24T08:15:31;2.20;;;2.00;;
15043;SDS011;7619;48.562;8.910;2023-06-24T08:17:59;2.77;;;2.50;;
15043;SDS011;7619;48.562;8.910;2023-06-24T08:20:27;1.73;;;1.50;;
15043;SDS011;7619;48.562;8.910;2023-06-24T08:22:55;3.17;;;1.87;;
15043;SDS011;7619;48.562;8.910;2023-06-24T08:25:24;2.33;;;2.00;;
15043;SDS011;7619;48.562;8.910;2023-06-24T08:27:52;2.10;;;1.90;;
15043;SDS011;7619;48.562;8.910;2023-06-24T08:30:20;2.53;;;2.17;;
15043;SDS011;7619;48.562;8.910;2023-06-24T08:32:48;3.20;;;2.20;;
15043;SDS011;7619;48.562;8.910;2023-06-24T08:35:16;2.33;;;1.77;;
15043;SDS011;7619;48.562;8.910;2023-06-24T08:37:44;2.73;;;2.10;;
15043;SDS011;7619;48.562;8.910;2023-06-24T08:40:13;2.40;;;1.97;;
15043;SDS011;7619;48.562;8.910;2023-06-24T08:42:41;2.20;;;1.87;;
15043;SDS011;7619;48.562;8.910;2023-06-24T08:45:11;2.23;;;1.77;;
15043;SDS011;7619;48.562;8.910;2023-06-24T08:47:39;2.30;;;2.10;;
15043;SDS011;7619;48.562;8.910;2023-06-24T08:50:10;2.27;;;2.07;;
15043;SDS011;7619;48.562;8.910;2023-06-24T08:52:40;2.10;;;1.87;;
15043;SDS011;7619;48.562;8.910;2023-06-24T08:55:09;3.10;;;2.00;;
15043;SDS011;7619;48.562;8.910;2023-06-24T08:57:38;2.00;;;1.73;;
15043;SDS011;7619;48.562;8.910;2023-06-24T09:00:07;1.93;;;1.80;;
15043;SDS011;7619;48.562;8.910;2023-06-24T09:02:36;2.10;;;1.87;;
15043;SDS011;7619;48.562;8.910;2023-06-24T09:05:05;1.90;;;1.70;;
15043;SDS011;7619;48.562;8.910;2023-06-24T09:07:33;1.40;;;1.30;;
15043;SDS011;7619;48.562;8.910;2023-06-24T09:10:01;1.70;;;1.57;;
15043;SDS011;7619;48.562;8.910;2023-06-24T09:12:32;1.90;;;1.60;;
15043;SDS011;7619;48.562;8.910;2023-06-24T09:15:00;2.40;;;1.70;;
15043;SDS011;7619;48.562;8.910;2023-06-24T09:17:30;1.97;;;1.77;;
15043;SDS011;7619;48.562;8.910;2023-06-24T09:20:03;1.70;;;1.60;;
15043;SDS011;7619;48.562;8.910;2023-06-24T09:22:31;1.77;;;1.60;;
15043;SDS011;7619;48.562;8.910;2023-06-24T09:25:01;1.67;;;1.50;;
15043;SDS011;7619;48.562;8.910;2023-06-24T09:27:31;2.03;;;1.70;;
15043;SDS011;7619;48.562;8.910;2023-06-24T09:30:00;2.17;;;1.77;;
15043;SDS011;7619;48.562;8.910;2023-06-24T09:32:29;2.47;;;2.20;;
15043;SDS011;7619;48.562;8.910;2023-06-24T09:34:57;3.27;;;1.90;;
15043;SDS011;7619;48.562;8.910;2023-06-24T09:37:25;4.50;;;2.03;;
15043;SDS011;7619;48.562;8.910;2023-06-24T09:39:56;1.83;;;1.70;;
15043;SDS011;7619;48.562;8.910;2023-06-24T09:42:24;2.30;;;2.00;;
15043;SDS011;7619;48.562;8.910;2023-06-24T09:44:55;2.33;;;2.13;;
15043;SDS011;7619;48.562;8.910;2023-06-24T09:47:24;2.10;;;1.90;;
15043;SDS011;7619;48.562;8.910;2023-06-24T09:49:54;3.07;;;2.73;;
15043;SDS011;7619;48.562;8.910;2023-06-24T09:52:22;2.20;;;1.97;;
15043;SDS011;7619;48.562;8.910;2023-06-24T09:54:50;3.37;;;2.17;;
15043;SDS011;7619;48.562;8.910;2023-06-24T09:57:20;2.93;;;2.23;;
15043;SDS011;7619;48.562;8.910;2023-06-24T09:59:48;3.30;;;2.27;;
15043;SDS011;7619;48.562;8.910;2023-06-24T10:02:17;2.00;;;1.77;;
15043;SDS011;7619;48.562;8.910;2023-06-24T10:04:46;1.90;;;1.80;;
15043;SDS011;7619;48.562;8.910;2023-06-24T10:07:14;2.23;;;1.73;;
15043;SDS011;7619;48.562;8.910;2023-06-24T10:09:42;2.23;;;2.03;;
15043;SDS011;7619;48.562;8.910;2023-06-24T10:12:10;1.90;;;1.67;;
15043;SDS011;7619;48.562;8.910;2023-06-24T10:14:38;2.07;;;1.87;;
15043;SDS011;7619;48.562;8.910;2023-06-24T10:17:06;1.70;;;1.60;;
15043;SDS011;7619;48.562;8.910;2023-06-24T10:19:38;1.60;;;1.40;;
15043;SDS011;7619;48.562;8.910;2023-06-24T10:22:07;3.07;;;2.27;;
15043;SDS011;7619;48.562;8.910;2023-06-24T10:24:37;2.47;;;1.80;;
15043;SDS011;7619;48.562;8.910;2023-06-24T10:29:45;2.13;;;1.93;;
15043;SDS011;7619;48.562;8.910;2023-06-24T10:32:13;2.00;;;1.87;;
15043;SDS011;7619;48.562;8.910;2023-06-24T10:34:42;1.73;;;1.63;;
15043;SDS011;7619;48.562;8.910;2023-06-24T10:37:11;2.30;;;2.00;;
15043;SDS011;7619;48.562;8.910;2023-06-24T10:39:42;2.10;;;1.90;;
15043;SDS011;7619;48.562;8.910;2023-06-24T10:42:25;2.13;;;1.50;;
15043;SDS011;7619;48.562;8.910;2023-06-24T10:44:54;2.27;;;1.67;;
15043;SDS011;7619;48.562;8.910;2023-06-24T10:47:22;1.77;;;1.63;;
15043;SDS011;7619;48.562;8.910;2023-06-24T10:49:51;1.50;;;1.40;;
15043;SDS011;7619;48.562;8.910;2023-06-24T10:52:20;2.70;;;2.07;;
15043;SDS011;7619;48.562;8.910;2023-06-24T10:54:48;2.67;;;1.33;;
15043;SDS011;7619;48.562;8.910;2023-06-24T10:57:20;2.20;;;1.53;;
15043;SDS011;7619;48.562;8.910;2023-06-24T10:59:47;2.10;;;1.70;;
15043;SDS011;7619;48.562;8.910;2023-06-24T11:02:15;2.00;;;1.50;;
15043;SDS011;7619;48.562;8.910;2023-06-24T11:04:44;1.63;;;1.53;;
15043;SDS011;7619;48.562;8.910;2023-06-24T11:07:13;1.80;;;1.63;;
15043;SDS011;7619;48.562;8.910;2023-06-24T11:09:41;1.60;;;1.50;;
15043;SDS011;7619;48.562;8.910;2023-06-24T11:12:10;2.67;;;1.80;;
15043;SDS011;7619;48.562;8.910;2023-06-24T11:14:38;1.63;;;1.53;;
15043;SDS011;7619;48.562;8.910;2023-06-24T11:17:07;1.73;;;1.60;;
15043;SDS011;7619;48.562;8.910;2023-06-24T11:19:35;1.50;;;1.40;;
15043;SDS011;7619;48.562;8.910;2023-06-24T11:22:05;1.97;;;1.60;;
15043;SDS011;7619;48.562;8.910;2023-06-24T11:24:33;3.80;;;2.50;;
15043;SDS011;7619;48.562;8.910;2023-06-24T11:27:03;1.73;;;1.60;;
15043;SDS011;7619;48.562;8.910;2023-06-24T11:29:32;2.17;;;1.97;;
15043;SDS011;7619;48.562;8.910;2023-06-24T11:32:01;1.87;;;1.60;;
15043;SDS011;7619;48.562;8.910;2023-06-24T11:34:29;2.30;;;2.00;;
15043;SDS011;7619;48.562;8.910;2023-06-24T11:36:57;2.23;;;1.50;;
15043;SDS011;7619;48.562;8.910;2023-06-24T11:39:27;1.63;;;1.53;;
15043;SDS011;7619;48.562;8.910;2023-06-24T11:41:57;1.43;;;1.33;;
15043;SDS011;7619;48.562;8.910;2023-06-24T11:44:26;1.57;;;1.47;;
15043;SDS011;7619;48.562;8.910;2023-06-24T11:46:56;2.30;;;1.80;;
15043;SDS011;7619;48.562;8.910;2023-06-24T11:49:27;2.27;;;1.63;;
15043;SDS011;7619;48.562;8.910;2023-06-24T11:51:55;5.57;;;3.20;;
15043;SDS011;7619;48.562;8.910;2023-06-24T11:54:23;2.80;;;1.50;;
15043;SDS011;7619;48.562;8.910;2023-06-24T11:56:51;2.13;;;1.67;;
15043;SDS011;7619;48.562;8.910;2023-06-24T11:59:20;1.60;;;1.40;;
15043;SDS011;7619;48.562;8.910;2023-06-24T12:01:55;2.10;;;1.40;;
15043;SDS011;7619;48.562;8.910;2023-06-24T12:04:27;1.93;;;1.37;;
15043;SDS011;7619;48.562;8.910;2023-06-24T12:06:56;1.90;;;1.60;;
15043;SDS011;7619;48.562;8.910;2023-06-24T12:09:24;2.83;;;1.90;;
15043;SDS011;7619;48.562;8.910;2023-06-24T12:11:52;1.70;;;1.47;;
15043;SDS011;7619;48.562;8.910;2023-06-24T12:14:20;1.97;;;1.73;;
15043;SDS011;7619;48.562;8.910;2023-06-24T12:16:48;1.80;;;1.70;;
15043;SDS011;7619;48.562;8.910;2023-06-24T12:19:17;3.13;;;2.03;;
15043;SDS011;7619;48.562;8.910;2023-06-24T12:21:46;1.93;;;1.53;;
15043;SDS011;7619;48.562;8.910;2023-06-24T12:24:14;1.50;;;1.40;;
15043;SDS011;7619;48.562;8.910;2023-06-24T12:26:42;1.60;;;1.50;;
15043;SDS011;7619;48.562;8.910;2023-06-24T12:29:12;1.80;;;1.50;;
15043;SDS011;7619;48.562;8.910;2023-06-24T12:31:40;1.60;;;1.50;;
15043;SDS011;7619;48.562;8.910;2023-06-24T12:34:10;1.73;;;1.47;;
15043;SDS011;7619;48.562;8.910;2023-06-24T12:36:38;1.33;;;1.23;;
15043;SDS011;7619;48.562;8.910;2023-06-24T12:39:07;1.53;;;1.40;;
15043;SDS011;7619;48.562;8.910;2023-06-24T12:44:13;2.70;;;1.60;;
15043;SDS011;7619;48.562;8.910;2023-06-24T12:51:53;1.33;;;1.23;;
15043;SDS011;7619;48.562;8.910;2023-06-24T12:54:21;1.60;;;1.50;;
15043;SDS011;7619;48.562;8.910;2023-06-24T12:56:50;1.47;;;1.37;;
15043;SDS011;7619;48.562;8.910;2023-06-24T12:59:18;1.30;;;1.17;;
15043;SDS011;7619;48.562;8.910;2023-06-24T13:04:23;1.43;;;1.33;;
15043;SDS011;7619;48.562;8.910;2023-06-24T13:06:51;3.17;;;1.40;;
15043;SDS011;7619;48.562;8.910;2023-06-24T13:11:56;1.83;;;1.53;;
15043;SDS011;7619;48.562;8.910;2023-06-24T13:14:24;1.87;;;1.70;;
15043;SDS011;7619;48.562;8.910;2023-06-24T13:16:55;1.63;;;1.53;;
15043;SDS011;7619;48.562;8.910;2023-06-24T13:19:23;1.63;;;1.53;;
15043;SDS011;7619;48.562;8.910;2023-06-24T13:21:51;1.87;;;1.70;;
15043;SDS011;7619;48.562;8.910;2023-06-24T13:24:19;1.87;;;1.47;;
15043;SDS011;7619;48.562;8.910;2023-06-24T13:32:29;1.40;;;1.30;;
15043;SDS011;7619;48.562;8.910;2023-06-24T13:34:57;2.03;;;1.60;;
15043;SDS011;7619;48.562;8.910;2023-06-24T13:37:26;1.53;;;1.20;;
15043;SDS011;7619;48.562;8.910;2023-06-24T13:39:54;1.53;;;1.33;;
15043;SDS011;7619;48.562;8.910;2023-06-24T13:42:22;1.70;;;1.40;;
15043;SDS011;7619;48.562;8.910;2023-06-24T13:44:51;1.60;;;1.30;;
15043;SDS011;7619;48.562;8.910;2023-06-24T13:47:20;2.20;;;1.60;;
15043;SDS011;7619;48.562;8.910;2023-06-24T13:49:49;1.57;;;1.43;;
15043;SDS011;7619;48.562;8.910;2023-06-24T13:52:17;1.73;;;1.47;;
15043;SDS011;7619;48.562;8.910;2023-06-24T13:54:46;1.27;;;1.17;;
15043;SDS011;7619;48.562;8.910;2023-06-24T13:57:14;1.70;;;1.53;;
15043;SDS011;7619;48.562;8.910;2023-06-24T13:59:42;1.60;;;1.50;;
15043;SDS011;7619;48.562;8.910;2023-06-24T14:02:11;1.93;;;1.57;;
15043;SDS011;7619;48.562;8.910;2023-06-24T14:04:39;1.63;;;1.43;;
15043;SDS011;7619;48.562;8.910;2023-06-24T14:07:07;1.60;;;1.43;;
15043;SDS011;7619;48.562;8.910;2023-06-24T14:09:36;1.57;;;1.10;;
15043;SDS011;7619;48.562;8.910;2023-06-24T14:12:06;2.10;;;1.50;;
15043;SDS011;7619;48.562;8.910;2023-06-24T14:14:35;1.57;;;1.47;;
15043;SDS011;7619;48.562;8.910;2023-06-24T14:17:04;3.03;;;1.57;;
15043;SDS011;7619;48.562;8.910;2023-06-24T14:19:34;1.70;;;1.40;;
15043;SDS011;7619;48.562;8.910;2023-06-24T14:22:02;1.03;;;1.03;;
15043;SDS011;7619;48.562;8.910;2023-06-24T14:24:30;1.67;;;1.43;;
15043;SDS011;7619;48.562;8.910;2023-06-24T14:26:59;1.80;;;1.70;;
15043;SDS011;7619;48.562;8.910;2023-06-24T14:29:27;1.70;;;1.57;;
15043;SDS011;7619;48.562;8.910;2023-06-24T14:31:55;3.17;;;1.50;;
15043;SDS011;7619;48.562;8.910;2023-06-24T14:34:23;1.50;;;1.40;;
15043;SDS011;7619;48.562;8.910;2023-06-24T14:36:51;1.70;;;1.60;;
15043;SDS011;7619;48.562;8.910;2023-06-24T14:39:19;2.23;;;1.60;;
15043;SDS011;7619;48.562;8.910;2023-06-24T14:41:47;1.50;;;1.33;;
15043;SDS011;7619;48.562;8.910;2023-06-24T14:44:15;1.40;;;1.30;;
15043;SDS011;7619;48.562;8.910;2023-06-24T14:46:43;1.47;;;1.30;;
15043;SDS011;7619;48.562;8.910;2023-06-24T14:49:11;1.53;;;1.33;;
15043;SDS011;7619;48.562;8.910;2023-06-24T14:51:40;1.50;;;1.40;;
15043;SDS011;7619;48.562;8.910;2023-06-24T14:54:08;2.20;;;1.63;;
15043;SDS011;7619;48.562;8.910;2023-06-24T15:09:21;2.50;;;1.97;;
15043;SDS011;7619;48.562;8.910;2023-06-24T15:11:49;1.90;;;1.80;;
15043;SDS011;7619;48.562;8.910;2023-06-24T15:14:17;1.90;;;1.70;;
15043;SDS011;7619;48.562;8.910;2023-06-24T15:33:47;1.67;;;1.57;;
15043;SDS011;7619;48.562;8.910;2023-06-24T15:36:15;1.87;;;1.60;;
15043;SDS011;7619;48.562;8.910;2023-06-24T15:38:43;2.00;;;1.80;;
15043;SDS011;7619;48.562;8.910;2023-06-24T15:41:11;1.50;;;1.40;;
15043;SDS011;7619;48.562;8.910;2023-06-24T15:43:40;2.17;;;1.90;;
15043;SDS011;7619;48.562;8.910;2023-06-24T15:46:10;1.73;;;1.63;;
15043;SDS011;7619;48.562;8.910;2023-06-24T15:48:38;1.93;;;1.50;;
15043;SDS011;7619;48.562;8.910;2023-06-24T15:51:06;2.10;;;1.73;;
15043;SDS011;7619;48.562;8.910;2023-06-24T15:53:34;1.87;;;1.57;;
15043;SDS011;7619;48.562;8.910;2023-06-24T15:56:02;2.37;;;1.83;;
15043;SDS011;7619;48.562;8.910;2023-06-24T16:01:07;2.90;;;1.47;;
15043;SDS011;7619;48.562;8.910;2023-06-24T16:03:35;1.70;;;1.50;;
15043;SDS011;7619;48.562;8.910;2023-06-24T16:06:04;2.10;;;1.90;;
15043;SDS011;7619;48.562;8.910;2023-06-24T16:08:32;2.10;;;1.80;;
15043;SDS011;7619;48.562;8.910;2023-06-24T16:11:00;1.60;;;1.47;;
15043;SDS011;7619;48.562;8.910;2023-06-24T16:13:28;1.77;;;1.67;;
15043;SDS011;7619;48.562;8.910;2023-06-24T16:15:57;1.73;;;1.60;;